Time;durP1;ratioP1;P1;durP2;ratioP2;P2;SDS_P1;SDS_P2;PMS_P1;PMS_P2;Temp;Humidity;BMP_temperature;BMP_pressure;BME280_temperature;BME280_humidity;BME280_pressure;Samples;Min_cycle;Max_cycle;Signal;HPM_P1;HPM_P2
2021/12/11 00:01:02;;;;;;;1.90;1.07;;;1.10;99.90;;;;;;4984494;28;20489;-67
2021/12/11 00:03:32;;;;;;;1.80;0.77;;;1.10;99.90;;;;;;4988730;28;20502;-67
2021/12/11 00:06:06;;;;;;;2.47;1.00;;;1.20;99.90;;;;;;4979791;28;20812;-67
2021/12/11 00:08:33;;;;;;;1.83;0.87;;;1.20;99.90;;;;;;4988847;28;20438;-67
2021/12/11 00:11:08;;;;;;;1.50;0.83;;;1.10;99.90;;;;;;4988160;28;20435;-67
2021/12/11 00:13:40;;;;;;;2.53;1.10;;;1.20;99.90;;;;;;4988729;28;20469;-67
2021/12/11 00:16:09;;;;;;;3.00;1.13;;;1.10;99.90;;;;;;4988295;28;20465;-68
2021/12/11 00:18:35;;;;;;;2.70;1.00;;;1.20;99.90;;;;;;4990228;28;20453;-67
2021/12/11 00:21:09;;;;;;;2.40;1.10;;;1.30;99.90;;;;;;4992593;28;20478;-67
2021/12/11 00:23:37;;;;;;;1.50;0.70;;;1.20;99.90;;;;;;4984843;28;20858;-67
2021/12/11 00:26:05;;;;;;;2.53;0.93;;;1.20;99.90;;;;;;4990842;28;20462;-67
2021/12/11 00:28:31;;;;;;;1.87;1.10;;;1.20;99.90;;;;;;4983256;28;20457;-67
2021/12/11 00:30:58;;;;;;;1.40;0.90;;;1.20;99.90;;;;;;4986035;28;20432;-67
2021/12/11 00:33:27;;;;;;;2.50;1.10;;;1.20;99.90;;;;;;4992179;28;20242;-67
2021/12/11 00:35:55;;;;;;;2.30;1.00;;;1.20;99.90;;;;;;4986020;28;20430;-67
2021/12/11 00:38:25;;;;;;;2.00;0.90;;;1.20;99.90;;;;;;4991347;28;20419;-67
2021/12/11 00:40:53;;;;;;;2.70;1.07;;;1.20;99.90;;;;;;4977432;28;20462;-67
2021/12/11 00:43:28;;;;;;;1.80;0.80;;;1.20;99.90;;;;;;4991990;28;20430;-67
2021/12/11 00:45:56;;;;;;;2.20;0.87;;;1.30;99.90;;;;;;4986327;28;20513;-67
2021/12/11 00:48:24;;;;;;;1.60;0.77;;;1.30;99.90;;;;;;4992868;28;20899;-67
2021/12/11 00:50:59;;;;;;;2.70;1.30;;;1.30;99.90;;;;;;4993119;28;20522;-67
2021/12/11 00:53:33;;;;;;;1.90;0.90;;;1.30;99.90;;;;;;4992005;28;20454;-67
2021/12/11 00:56:04;;;;;;;2.50;1.10;;;1.30;99.90;;;;;;4989412;28;20419;-67
2021/12/11 00:58:34;;;;;;;2.17;1.00;;;1.30;99.90;;;;;;4981440;28;20430;-67
2021/12/11 01:01:06;;;;;;;4.90;0.97;;;1.30;99.90;;;;;;4981224;28;20515;-67
2021/12/11 01:03:46;;;;;;;1.43;0.73;;;1.30;99.90;;;;;;4983491;28;21005;-67
2021/12/11 01:06:38;;;;;;;1.67;0.70;;;1.30;99.90;;;;;;4991993;28;20474;-67
2021/12/11 01:09:10;;;;;;;1.67;1.00;;;1.30;99.90;;;;;;4984556;28;20975;-67
2021/12/11 01:11:42;;;;;;;2.33;1.20;;;1.40;99.90;;;;;;4991942;28;20483;-67
2021/12/11 01:14:38;;;;;;;1.87;1.23;;;1.40;99.90;;;;;;4992216;28;20525;-67
2021/12/11 01:17:22;;;;;;;1.63;0.83;;;1.30;99.90;;;;;;4991161;28;20506;-67
2021/12/11 01:19:52;;;;;;;1.67;0.90;;;1.40;99.90;;;;;;4991767;28;20537;-67
2021/12/11 01:22:35;;;;;;;2.13;0.80;;;1.40;99.90;;;;;;4991593;28;20438;-67
2021/12/11 01:25:07;;;;;;;1.87;0.70;;;1.30;99.90;;;;;;4988809;28;20470;-67
2021/12/11 01:27:34;;;;;;;3.80;1.37;;;1.30;99.90;;;;;;4987667;28;20428;-67
2021/12/11 01:30:00;;;;;;;2.10;1.10;;;1.30;99.90;;;;;;4991214;28;20888;-67
2021/12/11 01:32:29;;;;;;;2.80;1.27;;;1.40;99.90;;;;;;4985204;28;20813;-67
2021/12/11 01:34:57;;;;;;;2.30;0.97;;;1.40;99.90;;;;;;4991076;28;20437;-67
2021/12/11 01:37:23;;;;;;;2.00;1.17;;;1.40;99.90;;;;;;4991572;28;20435;-67
2021/12/11 01:39:51;;;;;;;2.20;1.00;;;1.40;99.90;;;;;;4990425;28;20490;-67
2021/12/11 01:42:22;;;;;;;1.77;1.10;;;1.30;99.90;;;;;;4987595;28;20426;-67
2021/12/11 01:44:49;;;;;;;1.70;0.77;;;1.40;99.90;;;;;;4988143;28;21129;-68
2021/12/11 01:47:26;;;;;;;4.07;1.20;;;1.40;99.90;;;;;;4986414;28;20459;-67
2021/12/11 01:49:57;;;;;;;1.77;1.20;;;1.30;99.90;;;;;;4989049;28;20947;-67
2021/12/11 01:52:32;;;;;;;2.13;1.03;;;1.30;99.90;;;;;;4991004;28;20418;-67
2021/12/11 01:54:59;;;;;;;1.87;1.07;;;1.30;99.90;;;;;;4988420;28;20885;-67
2021/12/11 01:57:29;;;;;;;1.80;0.97;;;1.30;99.90;;;;;;4990328;28;20454;-67
2021/12/11 02:00:13;;;;;;;2.70;1.00;;;1.30;99.90;;;;;;4984924;28;21173;-67
2021/12/11 02:02:46;;;;;;;2.03;1.10;;;1.30;99.90;;;;;;4974157;28;20523;-67
2021/12/11 02:05:13;;;;;;;2.70;1.63;;;1.30;99.90;;;;;;4989998;28;20466;-67
2021/12/11 02:07:48;;;;;;;5.17;1.77;;;1.30;99.90;;;;;;4988091;28;20438;-68
2021/12/11 02:10:35;;;;;;;1.90;1.00;;;1.30;99.90;;;;;;4990745;28;20874;-67
2021/12/11 02:13:05;;;;;;;1.70;1.00;;;1.40;99.90;;;;;;4989231;28;20447;-67
2021/12/11 02:15:37;;;;;;;1.50;0.80;;;1.30;99.90;;;;;;4990488;28;20430;-67
2021/12/11 02:18:20;;;;;;;2.47;0.93;;;1.40;99.90;;;;;;4985256;28;20448;-67
2021/12/11 02:20:54;;;;;;;1.60;0.80;;;1.40;99.90;;;;;;4987829;28;20446;-67
2021/12/11 02:23:20;;;;;;;1.40;0.77;;;1.40;99.90;;;;;;4976953;28;20431;-68
2021/12/11 02:25:50;;;;;;;2.30;1.20;;;1.40;99.90;;;;;;4980764;28;20431;-67
2021/12/11 02:28:19;;;;;;;1.83;0.97;;;1.30;99.90;;;;;;4989343;28;20422;-68
2021/12/11 02:31:04;;;;;;;1.87;0.80;;;1.40;99.90;;;;;;4982826;28;20485;-68
2021/12/11 02:33:52;;;;;;;2.53;1.07;;;1.30;99.90;;;;;;4983957;28;20977;-67
2021/12/11 02:36:26;;;;;;;2.47;1.07;;;1.30;99.90;;;;;;4988991;28;20486;-67
2021/12/11 02:39:01;;;;;;;1.63;1.00;;;1.40;99.90;;;;;;4984652;28;20415;-68
2021/12/11 02:41:49;;;;;;;2.03;0.73;;;1.40;99.90;;;;;;4984310;28;20419;-67
2021/12/11 02:44:37;;;;;;;3.20;1.13;;;1.40;99.90;;;;;;4984073;28;20495;-67
2021/12/11 02:47:24;;;;;;;1.80;0.90;;;1.40;99.90;;;;;;4979436;28;20427;-67
2021/12/11 02:49:55;;;;;;;1.80;1.07;;;1.40;99.90;;;;;;4978523;28;20530;-67
2021/12/11 02:52:42;;;;;;;2.13;1.17;;;1.40;99.90;;;;;;4984037;28;20427;-67
2021/12/11 02:55:17;;;;;;;5.93;1.13;;;1.40;99.90;;;;;;4987246;28;20887;-67
2021/12/11 02:57:48;;;;;;;2.90;1.20;;;1.50;99.90;;;;;;4979877;28;20480;-67
2021/12/11 03:00:34;;;;;;;2.97;1.13;;;1.50;99.90;;;;;;4985563;28;20442;-67
2021/12/11 03:03:06;;;;;;;1.90;1.00;;;1.40;99.90;;;;;;4988433;28;20438;-68
2021/12/11 03:05:49;;;;;;;2.90;1.00;;;1.40;99.90;;;;;;4988734;28;20478;-68
2021/12/11 03:08:18;;;;;;;1.40;0.80;;;1.40;99.90;;;;;;4988285;28;20489;-68
2021/12/11 03:10:49;;;;;;;1.20;0.60;;;1.40;99.90;;;;;;4980313;28;20435;-68
2021/12/11 03:13:15;;;;;;;1.50;0.73;;;1.50;99.90;;;;;;4979764;28;20437;-68
2021/12/11 03:15:41;;;;;;;1.63;0.83;;;1.40;99.90;;;;;;4982533;28;20435;-68
2021/12/11 03:18:07;;;;;;;1.20;0.70;;;1.40;99.90;;;;;;4980661;28;20458;-68
2021/12/11 03:20:36;;;;;;;1.50;0.80;;;1.50;99.90;;;;;;4978009;28;20191;-68
2021/12/11 03:23:02;;;;;;;1.53;0.73;;;1.50;99.90;;;;;;4973897;28;20431;-68
2021/12/11 03:25:30;;;;;;;1.30;0.63;;;1.40;99.90;;;;;;4978046;28;20512;-68
2021/12/11 03:27:57;;;;;;;1.60;0.80;;;1.40;99.90;;;;;;4988244;28;20552;-68
2021/12/11 03:30:26;;;;;;;1.33;0.80;;;1.40;99.90;;;;;;4981055;28;20439;-69
2021/12/11 03:32:57;;;;;;;1.40;0.60;;;1.50;99.90;;;;;;4988669;28;20423;-68
2021/12/11 03:35:23;;;;;;;1.20;0.50;;;1.50;99.90;;;;;;4982321;28;20518;-68
2021/12/11 03:37:50;;;;;;;1.10;0.50;;;1.50;99.90;;;;;;4984943;28;20467;-67
2021/12/11 03:40:17;;;;;;;1.17;0.50;;;1.40;99.90;;;;;;4981582;28;20438;-67
2021/12/11 03:42:45;;;;;;;1.20;0.50;;;1.20;99.90;;;;;;4987270;28;20470;-67
2021/12/11 03:45:16;;;;;;;1.50;0.60;;;1.10;99.90;;;;;;4988037;28;20969;-67
2021/12/11 03:47:48;;;;;;;2.27;0.50;;;1.00;99.90;;;;;;4984705;28;20443;-67
2021/12/11 03:50:16;;;;;;;1.13;0.40;;;0.90;99.90;;;;;;4988053;28;20554;-67
2021/12/11 03:52:43;;;;;;;2.70;0.70;;;0.90;99.90;;;;;;4985861;28;21048;-67
2021/12/11 03:55:11;;;;;;;1.33;0.63;;;0.90;99.90;;;;;;4990736;28;21028;-67
2021/12/11 03:57:37;;;;;;;1.50;0.70;;;0.80;99.90;;;;;;4986224;28;20446;-67
2021/12/11 04:00:09;;;;;;;1.93;0.93;;;0.80;99.90;;;;;;4986820;28;20438;-67
2021/12/11 04:02:35;;;;;;;1.60;0.70;;;0.80;99.90;;;;;;4991364;28;20931;-67
2021/12/11 04:05:05;;;;;;;1.10;0.50;;;0.80;99.90;;;;;;4989352;28;20474;-66
2021/12/11 04:07:38;;;;;;;1.10;0.47;;;0.80;99.90;;;;;;4988690;28;20553;-66
2021/12/11 04:10:07;;;;;;;1.20;0.60;;;0.80;99.90;;;;;;4978835;28;20990;-66
2021/12/11 04:12:33;;;;;;;1.30;0.50;;;0.80;99.90;;;;;;4985330;28;20426;-66
2021/12/11 04:14:59;;;;;;;1.73;0.70;;;0.80;99.90;;;;;;4984359;28;20819;-66
2021/12/11 04:17:27;;;;;;;1.30;0.60;;;0.80;99.90;;;;;;4982152;28;20188;-67
2021/12/11 04:19:57;;;;;;;1.63;1.03;;;0.80;99.90;;;;;;4991829;28;20485;-67
2021/12/11 04:22:24;;;;;;;1.50;0.80;;;0.70;99.90;;;;;;4990085;28;20446;-66
2021/12/11 04:24:50;;;;;;;2.60;0.90;;;0.70;99.90;;;;;;4981245;28;20573;-67
2021/12/11 04:27:19;;;;;;;1.50;0.80;;;0.70;99.90;;;;;;4980272;28;20467;-67
2021/12/11 04:29:49;;;;;;;1.57;0.90;;;0.70;99.90;;;;;;4988084;28;20438;-67
2021/12/11 04:32:16;;;;;;;3.63;1.33;;;0.70;99.90;;;;;;4981638;28;20426;-67
2021/12/11 04:34:42;;;;;;;1.63;0.70;;;0.70;99.90;;;;;;4986568;28;20423;-67
2021/12/11 04:37:22;;;;;;;1.30;0.70;;;0.70;99.90;;;;;;4977385;28;20447;-67
2021/12/11 04:39:57;;;;;;;1.57;0.80;;;0.70;99.90;;;;;;4984609;28;20496;-67
2021/12/11 04:44:49;;;;;;;3.03;1.30;;;0.70;99.90;;;;;;4988539;28;20462;-67
2021/12/11 04:47:29;;;;;;;3.90;1.20;;;0.70;99.90;;;;;;4984956;28;20493;-67
2021/12/11 04:50:00;;;;;;;3.10;1.03;;;0.80;99.90;;;;;;4988959;28;20206;-67
2021/12/11 04:52:48;;;;;;;2.30;1.57;;;0.80;99.90;;;;;;4987849;28;20483;-67
2021/12/11 04:55:34;;;;;;;2.07;1.20;;;0.80;99.90;;;;;;4986613;28;20423;-67
2021/12/11 05:00:46;;;;;;;5.47;1.60;;;0.70;99.90;;;;;;4980111;28;20453;-67
2021/12/11 05:06:25;;;;;;;2.97;1.30;;;0.70;99.90;;;;;;4985334;28;20521;-67
2021/12/11 05:11:37;;;;;;;4.40;1.70;;;0.80;99.90;;;;;;4982767;28;20861;-67
2021/12/11 05:14:04;;;;;;;2.90;1.40;;;0.70;99.90;;;;;;4991788;28;20916;-66
2021/12/11 05:16:29;;;;;;;3.27;1.70;;;0.80;99.90;;;;;;4983959;28;20435;-66
2021/12/11 05:18:56;;;;;;;2.20;1.40;;;0.80;99.90;;;;;;4981043;28;20444;-66
2021/12/11 05:21:22;;;;;;;3.33;1.50;;;0.80;99.90;;;;;;4989559;28;20219;-66
2021/12/11 05:23:50;;;;;;;2.27;1.33;;;0.80;99.90;;;;;;4989720;28;20974;-67
2021/12/11 05:26:16;;;;;;;6.00;1.57;;;0.90;99.90;;;;;;4988728;28;21196;-67
2021/12/11 05:28:43;;;;;;;5.10;2.10;;;0.90;99.90;;;;;;4991086;28;20427;-67
2021/12/11 05:31:09;;;;;;;4.07;2.60;;;0.90;99.90;;;;;;4989408;28;20181;-67
2021/12/11 05:33:36;;;;;;;2.80;1.70;;;0.90;99.90;;;;;;4990843;28;20446;-67
2021/12/11 05:36:06;;;;;;;3.83;1.73;;;0.90;99.90;;;;;;4984404;28;20446;-67
2021/12/11 05:38:33;;;;;;;3.00;1.50;;;0.90;99.90;;;;;;4990702;28;20527;-67
2021/12/11 05:41:02;;;;;;;3.17;1.80;;;0.90;99.90;;;;;;4990943;28;20525;-67
2021/12/11 05:43:28;;;;;;;7.13;2.40;;;1.00;99.90;;;;;;4981136;28;20423;-67
2021/12/11 05:45:53;;;;;;;2.90;1.67;;;1.00;99.90;;;;;;4985547;28;20751;-67
2021/12/11 05:48:20;;;;;;;4.63;2.03;;;1.00;99.90;;;;;;4991288;28;20445;-67
2021/12/11 05:50:50;;;;;;;3.40;2.10;;;1.00;99.90;;;;;;4989184;28;20676;-67
2021/12/11 05:53:17;;;;;;;3.17;1.80;;;1.00;99.90;;;;;;4984822;28;20418;-67
2021/12/11 05:55:46;;;;;;;4.93;2.30;;;1.00;99.90;;;;;;4989735;28;20484;-67
2021/12/11 05:58:13;;;;;;;5.30;2.20;;;0.90;99.90;;;;;;4976862;28;20976;-67
2021/12/11 06:00:52;;;;;;;2.27;1.53;;;0.90;99.90;;;;;;4987724;28;20438;-67
2021/12/11 06:03:18;;;;;;;3.07;1.33;;;0.90;99.90;;;;;;4991608;28;20542;-67
2021/12/11 06:05:45;;;;;;;3.13;1.73;;;0.90;99.90;;;;;;4991127;28;20470;-67
2021/12/11 06:08:12;;;;;;;3.20;1.70;;;0.90;99.90;;;;;;4991690;28;20450;-67
2021/12/11 06:10:40;;;;;;;4.77;2.37;;;0.90;99.90;;;;;;4982939;28;20927;-67
2021/12/11 06:13:07;;;;;;;5.80;2.23;;;0.90;99.90;;;;;;4989715;28;20780;-67
2021/12/11 06:15:33;;;;;;;3.80;2.27;;;0.90;99.90;;;;;;4990749;28;20443;-67
2021/12/11 06:17:59;;;;;;;4.10;2.10;;;0.90;99.90;;;;;;4991332;28;20455;-67
2021/12/11 06:20:29;;;;;;;2.93;1.43;;;0.90;99.90;;;;;;4991996;28;20430;-67
2021/12/11 06:22:55;;;;;;;3.10;1.57;;;0.90;99.90;;;;;;4991574;28;20195;-67
2021/12/11 06:25:27;;;;;;;2.43;1.70;;;0.80;99.90;;;;;;4990239;28;20455;-67
2021/12/11 06:27:54;;;;;;;3.83;2.23;;;0.80;99.90;;;;;;4988408;28;20320;-67
2021/12/11 06:30:21;;;;;;;5.80;2.80;;;0.80;99.90;;;;;;4987554;28;20458;-67
2021/12/11 06:32:48;;;;;;;7.30;4.00;;;0.80;99.90;;;;;;4986852;28;20506;-66
2021/12/11 06:35:30;;;;;;;11.90;3.73;;;0.80;99.90;;;;;;4981656;28;20447;-66
2021/12/11 06:37:56;;;;;;;4.00;2.33;;;0.80;99.90;;;;;;4990006;28;20438;-66
2021/12/11 06:40:24;;;;;;;7.30;4.07;;;0.80;99.90;;;;;;4988057;28;20449;-66
2021/12/11 06:42:51;;;;;;;8.30;2.97;;;0.80;99.90;;;;;;4989004;28;20469;-66
2021/12/11 06:45:21;;;;;;;5.23;2.73;;;0.80;99.90;;;;;;4988544;28;20454;-66
2021/12/11 06:47:47;;;;;;;4.43;2.20;;;0.80;99.90;;;;;;4990311;28;20987;-66
2021/12/11 06:50:13;;;;;;;4.87;2.20;;;0.80;99.90;;;;;;4989604;28;20525;-66
2021/12/11 06:52:42;;;;;;;3.97;2.50;;;0.80;99.90;;;;;;4990842;28;20198;-66
2021/12/11 06:55:09;;;;;;;4.23;2.10;;;0.80;99.90;;;;;;4987770;28;20188;-67
2021/12/11 06:57:35;;;;;;;4.50;2.90;;;0.70;99.90;;;;;;4990500;28;20550;-67
2021/12/11 07:00:02;;;;;;;4.83;2.40;;;0.80;99.90;;;;;;4987266;28;20431;-67
2021/12/11 07:02:28;;;;;;;3.80;2.37;;;0.80;99.90;;;;;;4985169;28;20469;-67
2021/12/11 07:04:56;;;;;;;5.50;3.27;;;0.80;99.90;;;;;;4986361;28;20900;-67
2021/12/11 07:07:26;;;;;;;6.20;3.13;;;0.80;99.90;;;;;;4979719;28;20232;-68
2021/12/11 07:09:54;;;;;;;8.73;3.17;;;0.90;99.90;;;;;;4987554;28;20430;-67
2021/12/11 07:12:21;;;;;;;3.70;2.50;;;0.90;99.90;;;;;;4990358;28;21058;-67
2021/12/11 07:14:47;;;;;;;3.10;1.77;;;0.90;99.90;;;;;;4987081;28;20444;-67
2021/12/11 07:17:13;;;;;;;4.37;2.70;;;0.90;99.90;;;;;;4987769;28;20462;-67
2021/12/11 07:19:40;;;;;;;3.40;2.43;;;0.90;99.90;;;;;;4990135;28;20958;-68
2021/12/11 07:22:06;;;;;;;11.23;2.40;;;0.90;99.90;;;;;;4990259;28;20310;-68
2021/12/11 07:24:42;;;;;;;3.60;1.83;;;0.90;99.90;;;;;;4990590;28;21025;-67
2021/12/11 07:27:10;;;;;;;4.60;2.23;;;0.90;99.90;;;;;;4987646;28;20461;-68
2021/12/11 07:29:39;;;;;;;6.03;2.70;;;0.90;99.90;;;;;;4987947;28;20868;-68
2021/12/11 07:32:06;;;;;;;4.50;3.07;;;0.90;99.90;;;;;;4978685;28;20868;-67
2021/12/11 07:34:32;;;;;;;4.93;3.00;;;0.80;99.90;;;;;;4990523;28;20489;-67
2021/12/11 07:36:58;;;;;;;7.13;3.67;;;0.90;99.90;;;;;;4989729;28;20505;-67
2021/12/11 07:39:25;;;;;;;7.87;3.90;;;0.80;99.90;;;;;;4987673;28;20675;-67
2021/12/11 07:41:52;;;;;;;5.80;2.60;;;0.90;99.90;;;;;;4990349;28;20522;-67
2021/12/11 07:44:19;;;;;;;4.40;3.40;;;0.90;99.90;;;;;;4990441;28;20470;-67
2021/12/11 07:46:46;;;;;;;6.43;4.20;;;0.90;99.90;;;;;;4984740;28;20427;-68
2021/12/11 07:49:11;;;;;;;7.13;3.17;;;0.90;99.90;;;;;;4985805;28;20518;-67
2021/12/11 07:51:38;;;;;;;10.70;3.33;;;0.90;99.90;;;;;;4985693;28;20562;-68
2021/12/11 07:54:06;;;;;;;5.97;3.10;;;0.90;99.90;;;;;;4990087;28;20298;-68
2021/12/11 07:56:32;;;;;;;11.53;4.00;;;0.90;99.90;;;;;;4981686;28;20525;-68
2021/12/11 07:59:00;;;;;;;8.20;4.10;;;0.90;99.90;;;;;;4982703;28;20733;-68
2021/12/11 08:01:34;;;;;;;6.80;3.43;;;0.90;99.90;;;;;;4982173;28;20458;-68
2021/12/11 08:04:01;;;;;;;9.73;4.23;;;0.90;99.90;;;;;;4981426;28;20537;-66
2021/12/11 08:06:28;;;;;;;7.30;4.40;;;0.90;99.90;;;;;;4987115;28;20431;-66
2021/12/11 08:08:54;;;;;;;7.70;3.90;;;0.90;99.90;;;;;;4982045;28;20431;-66
2021/12/11 08:11:20;;;;;;;8.57;4.30;;;0.90;99.90;;;;;;4980150;28;20454;-66
2021/12/11 08:13:49;;;;;;;6.33;2.70;;;0.90;99.90;;;;;;4988744;28;20203;-66
2021/12/11 08:16:19;;;;;;;6.60;3.30;;;0.90;99.90;;;;;;4982374;28;20193;-66
2021/12/11 08:18:45;;;;;;;6.80;4.10;;;0.90;99.90;;;;;;4983351;28;20469;-67
2021/12/11 08:21:11;;;;;;;6.67;3.80;;;1.00;99.90;;;;;;4981951;28;20419;-67
2021/12/11 08:23:44;;;;;;;6.20;3.50;;;1.00;99.90;;;;;;4983673;28;20774;-66
2021/12/11 08:26:15;;;;;;;7.00;3.57;;;0.90;99.90;;;;;;4982041;28;20507;-67
2021/12/11 08:28:41;;;;;;;5.87;3.73;;;1.00;99.90;;;;;;4984366;28;20439;-67
2021/12/11 08:31:06;;;;;;;4.63;3.30;;;1.00;99.90;;;;;;4982336;28;20442;-66
2021/12/11 08:33:32;;;;;;;9.70;4.10;;;1.00;99.90;;;;;;4985641;28;20188;-66
2021/12/11 08:36:00;;;;;;;7.50;4.20;;;1.00;99.90;;;;;;4991476;28;20246;-66
2021/12/11 08:38:27;;;;;;;7.23;4.70;;;1.00;99.90;;;;;;4988940;28;20500;-66
2021/12/11 08:40:56;;;;;;;7.43;3.93;;;1.00;99.90;;;;;;4981150;28;20472;-66
2021/12/11 08:43:24;;;;;;;7.13;4.43;;;1.00;99.90;;;;;;4986129;28;21038;-66
2021/12/11 08:46:14;;;;;;;8.40;4.20;;;1.00;99.90;;;;;;4987395;28;20809;-66
2021/12/11 08:48:49;;;;;;;10.40;5.63;;;1.10;99.90;;;;;;4982719;28;20438;-66
2021/12/11 08:51:29;;;;;;;7.73;5.07;;;1.10;99.90;;;;;;4985502;28;20927;-66
2021/12/11 08:53:55;;;;;;;12.32;6.75;;;1.10;99.90;;;;;;4989004;28;20467;-66
2021/12/11 08:56:23;;;;;;;9.43;5.07;;;1.20;99.90;;;;;;4988388;28;20622;-66
2021/12/11 08:58:49;;;;;;;9.90;4.40;;;1.20;99.90;;;;;;4989964;28;20431;-67
2021/12/11 09:01:41;;;;;;;10.93;4.00;;;1.20;99.90;;;;;;4979051;28;20437;-67
2021/12/11 09:04:17;;;;;;;7.60;4.30;;;1.30;99.90;;;;;;4982071;28;20458;-67
2021/12/11 09:07:08;;;;;;;7.37;5.03;;;1.30;99.90;;;;;;4989070;28;20797;-67
2021/12/11 09:09:43;;;;;;;10.27;5.27;;;1.30;99.90;;;;;;4985915;28;20515;-67
2021/12/11 09:12:17;;;;;;;9.77;5.77;;;1.40;99.90;;;;;;4989282;28;20429;-67
2021/12/11 09:15:17;;;;;;;6.27;3.80;;;1.40;99.90;;;;;;4984716;28;20434;-67
2021/12/11 09:18:23;;;;;;;12.30;6.30;;;1.40;99.90;;;;;;4976477;28;20582;-67
2021/12/11 09:21:00;;;;;;;16.13;4.07;;;1.40;99.90;;;;;;4979150;28;20435;-67
2021/12/11 09:23:38;;;;;;;7.43;4.20;;;1.50;99.90;;;;;;4974893;28;20418;-67
2021/12/11 09:26:25;;;;;;;7.17;4.23;;;1.50;99.90;;;;;;4977237;28;20510;-67
2021/12/11 09:28:59;;;;;;;9.53;5.20;;;1.50;99.90;;;;;;4985149;28;20908;-66
2021/12/11 09:31:39;;;;;;;12.80;4.20;;;1.60;99.90;;;;;;4988112;28;20545;-66
2021/12/11 09:34:19;;;;;;;10.87;4.77;;;1.70;99.90;;;;;;4982429;28;20461;-66
2021/12/11 09:36:49;;;;;;;9.27;4.60;;;1.70;99.90;;;;;;4990996;28;20418;-66
2021/12/11 09:39:28;;;;;;;12.87;6.10;;;1.70;99.90;;;;;;4981693;28;21229;-66
2021/12/11 09:41:53;;;;;;;6.63;3.27;;;1.70;99.90;;;;;;4984200;28;20977;-66
2021/12/11 09:44:36;;;;;;;12.93;4.70;;;1.80;99.90;;;;;;4985602;28;20551;-66
2021/12/11 09:47:11;;;;;;;15.30;4.30;;;1.80;99.90;;;;;;4984756;28;20195;-66
2021/12/11 09:49:43;;;;;;;7.53;3.57;;;1.80;99.90;;;;;;4981310;28;20418;-66
2021/12/11 09:52:18;;;;;;;6.10;3.23;;;1.80;99.90;;;;;;4991090;28;20927;-67
2021/12/11 09:54:48;;;;;;;7.00;3.50;;;1.80;99.90;;;;;;4992742;28;20436;-67
2021/12/11 09:57:19;;;;;;;7.40;4.60;;;1.80;99.90;;;;;;4985678;28;20914;-67
2021/12/11 09:59:49;;;;;;;7.60;3.93;;;1.80;99.90;;;;;;4993072;28;20408;-66
2021/12/11 10:02:29;;;;;;;6.63;4.23;;;1.80;99.90;;;;;;4977661;28;20538;-72
2021/12/11 10:05:18;;;;;;;5.97;3.63;;;1.90;99.90;;;;;;4985342;28;20473;-67
2021/12/11 10:08:00;;;;;;;10.40;5.57;;;1.80;99.90;;;;;;4981487;28;20772;-66
2021/12/11 10:10:27;;;;;;;7.37;3.93;;;1.80;99.90;;;;;;4972355;28;21212;-67
2021/12/11 10:12:56;;;;;;;10.53;4.33;;;1.90;99.90;;;;;;4978469;28;20916;-67
2021/12/11 10:15:31;;;;;;;10.63;5.73;;;1.80;99.90;;;;;;4976779;28;20431;-67
2021/12/11 10:18:10;;;;;;;10.00;4.80;;;1.90;99.90;;;;;;4977161;28;20438;-67
2021/12/11 10:20:49;;;;;;;12.57;5.33;;;1.90;99.90;;;;;;4990388;28;20410;-66
2021/12/11 10:23:19;;;;;;;9.53;5.77;;;1.90;99.90;;;;;;4990292;28;20418;-66
2021/12/11 10:25:47;;;;;;;9.20;5.63;;;2.00;99.90;;;;;;4990031;28;20462;-66
2021/12/11 10:28:18;;;;;;;9.53;5.30;;;2.00;99.90;;;;;;4977873;28;20531;-66
2021/12/11 10:30:49;;;;;;;9.63;5.30;;;2.00;99.90;;;;;;4982968;28;20785;-67
2021/12/11 10:33:17;;;;;;;11.57;5.00;;;2.00;99.90;;;;;;4984330;28;21062;-67
2021/12/11 10:35:47;;;;;;;6.57;4.33;;;2.00;99.90;;;;;;4981115;28;20431;-67
2021/12/11 10:38:13;;;;;;;8.23;4.90;;;2.10;99.90;;;;;;4990542;28;20419;-67
2021/12/11 10:40:45;;;;;;;9.90;4.70;;;2.10;99.90;;;;;;4988362;28;20428;-67
2021/12/11 10:43:28;;;;;;;13.10;4.90;;;2.20;99.90;;;;;;4989907;28;20783;-67
2021/12/11 10:45:56;;;;;;;12.13;6.67;;;2.10;99.90;;;;;;4986350;28;20986;-67
2021/12/11 10:48:29;;;;;;;13.80;6.00;;;2.10;99.90;;;;;;4990024;28;20467;-67
2021/12/11 10:51:07;;;;;;;10.60;5.20;;;2.10;99.90;;;;;;4990395;28;20415;-67
2021/12/11 10:53:35;;;;;;;10.90;5.00;;;2.10;99.90;;;;;;4990136;28;20414;-67
2021/12/11 10:56:04;;;;;;;8.67;4.60;;;2.10;99.90;;;;;;4988624;28;20567;-67
2021/12/11 10:58:38;;;;;;;8.17;4.50;;;2.10;99.90;;;;;;4988338;28;20780;-67
2021/12/11 11:01:10;;;;;;;9.27;4.60;;;2.10;99.90;;;;;;4987017;28;20446;-67
2021/12/11 11:03:39;;;;;;;8.60;4.57;;;2.10;99.90;;;;;;4977233;28;20535;-67
2021/12/11 11:06:06;;;;;;;9.30;5.40;;;2.00;99.90;;;;;;4986637;28;20470;-67
2021/12/11 11:08:32;;;;;;;17.03;6.30;;;2.10;99.90;;;;;;4982636;28;21149;-67
2021/12/11 11:11:02;;;;;;;10.53;5.60;;;2.10;99.90;;;;;;4988881;28;20423;-67
2021/12/11 11:13:28;;;;;;;10.63;5.20;;;2.10;99.90;;;;;;4981778;28;20444;-67
2021/12/11 11:15:56;;;;;;;8.20;4.63;;;2.10;99.90;;;;;;4988658;28;20868;-67
2021/12/11 11:18:23;;;;;;;12.13;5.70;;;2.00;99.90;;;;;;4989012;28;20547;-67
2021/12/11 11:20:54;;;;;;;13.17;5.20;;;2.10;99.90;;;;;;4985119;28;20427;-67
2021/12/11 11:23:20;;;;;;;13.20;5.80;;;2.10;99.90;;;;;;4988727;28;20430;-67
2021/12/11 11:25:50;;;;;;;11.30;5.43;;;2.10;99.90;;;;;;4986358;28;20467;-67
2021/12/11 11:28:19;;;;;;;8.47;5.37;;;2.00;99.90;;;;;;4988185;28;20423;-67
2021/12/11 11:30:51;;;;;;;7.57;3.83;;;2.00;99.90;;;;;;4988335;28;20435;-67
2021/12/11 11:33:18;;;;;;;9.03;5.10;;;2.10;99.90;;;;;;4988802;28;20912;-67
2021/12/11 11:35:47;;;;;;;6.77;3.20;;;2.20;99.90;;;;;;4986552;28;20462;-66
2021/12/11 11:38:20;;;;;;;9.93;4.80;;;2.10;99.90;;;;;;4987774;28;20529;-66
2021/12/11 11:40:50;;;;;;;8.20;4.97;;;2.10;99.90;;;;;;4978631;28;20439;-66
2021/12/11 11:43:16;;;;;;;9.30;4.53;;;2.10;99.90;;;;;;4986614;28;20429;-66
2021/12/11 11:45:43;;;;;;;10.77;4.73;;;2.10;99.90;;;;;;4979910;28;20627;-67
2021/12/11 11:48:09;;;;;;;7.17;4.20;;;2.10;99.90;;;;;;4983312;28;20428;-67
2021/12/11 11:50:40;;;;;;;12.10;4.33;;;2.10;99.90;;;;;;4980017;28;20993;-67
2021/12/11 11:53:10;;;;;;;9.40;4.90;;;2.10;99.90;;;;;;4987720;28;20430;-67
2021/12/11 11:55:43;;;;;;;11.53;4.40;;;2.10;99.90;;;;;;4989285;28;20429;-67
2021/12/11 11:58:10;;;;;;;7.87;4.50;;;2.20;99.90;;;;;;4990084;28;20496;-66
2021/12/11 12:00:43;;;;;;;7.23;4.43;;;2.10;99.90;;;;;;4977968;28;20537;-67
2021/12/11 12:03:16;;;;;;;9.40;4.93;;;2.10;99.90;;;;;;4988928;28;20477;-68
2021/12/11 12:05:46;;;;;;;10.60;5.00;;;2.10;99.90;;;;;;4982489;28;20466;-66
2021/12/11 12:08:15;;;;;;;13.23;4.40;;;2.10;99.90;;;;;;4986665;28;21068;-66
2021/12/11 12:10:43;;;;;;;11.07;5.07;;;2.10;99.90;;;;;;4988703;28;20501;-66
2021/12/11 12:13:09;;;;;;;9.63;5.40;;;2.10;99.90;;;;;;4987370;28;20427;-66
2021/12/11 12:15:45;;;;;;;10.80;4.37;;;2.20;99.90;;;;;;4986738;28;20864;-67
2021/12/11 12:18:12;;;;;;;7.60;4.60;;;2.30;99.90;;;;;;4989285;28;20473;-67
2021/12/11 12:20:40;;;;;;;11.93;5.47;;;2.30;99.90;;;;;;4993034;28;20518;-67
2021/12/11 12:23:07;;;;;;;8.13;4.30;;;2.50;99.90;;;;;;4990192;28;20423;-66
2021/12/11 12:25:33;;;;;;;11.20;5.90;;;2.60;99.90;;;;;;4991406;28;20462;-66
2021/12/11 12:27:58;;;;;;;5.80;3.73;;;2.80;99.90;;;;;;4989198;28;20410;-67
2021/12/11 12:30:50;;;;;;;8.40;4.00;;;2.90;99.90;;;;;;4983818;28;20192;-67
2021/12/11 12:33:16;;;;;;;7.07;3.50;;;2.80;99.90;;;;;;4986353;28;20275;-66
2021/12/11 12:35:43;;;;;;;5.00;3.30;;;2.70;99.90;;;;;;4988557;28;20534;-67
2021/12/11 12:38:11;;;;;;;5.30;2.70;;;2.60;99.90;;;;;;4991890;28;20431;-66
2021/12/11 12:41:27;;;;;;;9.10;4.43;;;2.60;99.90;;;;;;4980448;28;20427;-67
2021/12/11 12:46:41;;;;;;;4.37;3.13;;;2.60;99.90;;;;;;4984140;28;20446;-66
2021/12/11 12:49:07;;;;;;;6.30;3.23;;;2.50;99.90;;;;;;4990514;28;20477;-66
2021/12/11 12:51:35;;;;;;;5.70;3.43;;;2.50;99.90;;;;;;4978250;28;20500;-67
2021/12/11 12:54:04;;;;;;;6.60;3.83;;;2.50;99.90;;;;;;4987579;28;20546;-67
2021/12/11 12:56:37;;;;;;;11.50;4.50;;;2.50;99.90;;;;;;4989025;28;20443;-67
2021/12/11 12:59:20;;;;;;;3.50;2.13;;;2.60;99.90;;;;;;4979970;28;21214;-67
2021/12/11 13:02:02;;;;;;;4.73;2.70;;;2.60;99.90;;;;;;4987143;28;20867;-68
2021/12/11 13:04:33;;;;;;;5.23;3.00;;;2.60;99.90;;;;;;4987526;28;20561;-67
2021/12/11 13:07:02;;;;;;;8.53;4.47;;;2.60;99.90;;;;;;4982125;28;20441;-66
2021/12/11 13:09:41;;;;;;;3.53;2.30;;;2.40;99.90;;;;;;4985466;28;20497;-67
2021/12/11 13:12:23;;;;;;;7.90;3.53;;;2.40;99.90;;;;;;4982857;28;20450;-67
2021/12/11 13:14:53;;;;;;;4.03;2.80;;;2.40;99.90;;;;;;4978500;28;20446;-67
2021/12/11 13:17:27;;;;;;;7.13;2.70;;;2.30;99.90;;;;;;4987602;28;20908;-67
2021/12/11 13:19:59;;;;;;;8.83;3.60;;;2.30;99.90;;;;;;4973343;28;20526;-67
2021/12/11 13:22:32;;;;;;;7.20;3.40;;;2.30;99.90;;;;;;4985859;28;20509;-67
2021/12/11 13:25:01;;;;;;;7.93;3.53;;;2.30;99.90;;;;;;4991665;28;20554;-67
2021/12/11 13:27:29;;;;;;;10.87;5.47;;;2.40;99.90;;;;;;4990322;28;20418;-67
2021/12/11 13:29:57;;;;;;;6.43;4.43;;;2.30;99.90;;;;;;4987024;28;20468;-67